sensor_id;sensor_type;location;lat;lon;timestamp;pressure;altitude;pressure_sealevel;temperature;humidity
44457;BME280;30159;49.316;8.558;2023-04-29T00:01:10;100078.91;;;13.39;100.00
44457;BME280;30159;49.316;8.558;2023-04-29T00:03:37;100080.72;;;13.30;100.00
44457;BME280;30159;49.316;8.558;2023-04-29T00:06:05;100080.81;;;13.24;100.00
44457;BME280;30159;49.316;8.558;2023-04-29T00:08:31;100074.53;;;13.15;100.00
44457;BME280;30159;49.316;8.558;2023-04-29T00:10:58;100082.75;;;13.10;100.00
44457;BME280;30159;49.316;8.558;2023-04-29T00:13:24;100062.53;;;12.94;100.00
44457;BME280;30159;49.316;8.558;2023-04-29T00:15:51;100084.88;;;12.99;100.00
44457;BME280;30159;49.316;8.558;2023-04-29T00:18:17;100075.16;;;12.98;100.00
44457;BME280;30159;49.316;8.558;2023-04-29T00:20:44;100081.66;;;12.97;100.00
44457;BME280;30159;49.316;8.558;2023-04-29T00:23:12;100075.25;;;12.93;100.00
44457;BME280;30159;49.316;8.558;2023-04-29T00:25:38;100094.19;;;12.93;100.00
44457;BME280;30159;49.316;8.558;2023-04-29T00:28:05;100084.66;;;12.96;100.00
44457;BME280;30159;49.316;8.558;2023-04-29T00:30:32;100085.56;;;13.05;100.00
44457;BME280;30159;49.316;8.558;2023-04-29T00:32:59;100086.34;;;13.19;100.00
44457;BME280;30159;49.316;8.558;2023-04-29T00:35:25;100085.53;;;13.33;100.00
44457;BME280;30159;49.316;8.558;2023-04-29T00:37:51;100093.75;;;13.41;100.00
44457;BME280;30159;49.316;8.558;2023-04-29T00:40:20;100086.47;;;13.51;100.00
44457;BME280;30159;49.316;8.558;2023-04-29T00:42:46;100083.03;;;13.59;100.00
44457;BME280;30159;49.316;8.558;2023-04-29T00:45:13;100086.44;;;13.64;100.00
44457;BME280;30159;49.316;8.558;2023-04-29T00:47:39;100082.81;;;13.69;100.00
44457;BME280;30159;49.316;8.558;2023-04-29T00:50:07;100088.28;;;13.78;100.00
44457;BME280;30159;49.316;8.558;2023-04-29T00:52:33;100088.97;;;13.83;100.00
44457;BME280;30159;49.316;8.558;2023-04-29T00:55:04;100091.66;;;13.83;100.00
44457;BME280;30159;49.316;8.558;2023-04-29T00:57:32;100092.78;;;13.82;100.00
44457;BME280;30159;49.316;8.558;2023-04-29T00:59:59;100090.25;;;13.86;100.00
44457;BME280;30159;49.316;8.558;2023-04-29T01:02:27;100085.50;;;13.91;100.00
44457;BME280;30159;49.316;8.558;2023-04-29T01:04:54;100089.31;;;13.90;100.00
44457;BME280;30159;49.316;8.558;2023-04-29T01:07:26;100083.72;;;13.87;100.00
44457;BME280;30159;49.316;8.558;2023-04-29T01:10:03;100019.66;;;13.46;100.00
44457;BME280;30159;49.316;8.558;2023-04-29T01:12:40;100085.94;;;13.85;100.00
44457;BME280;30159;49.316;8.558;2023-04-29T01:15:21;100070.16;;;13.64;100.00
44457;BME280;30159;49.316;8.558;2023-04-29T01:17:54;100077.56;;;13.73;100.00
44457;BME280;30159;49.316;8.558;2023-04-29T01:20:21;100082.47;;;13.70;100.00
44457;BME280;30159;49.316;8.558;2023-04-29T01:22:48;100087.78;;;13.76;100.00
44457;BME280;30159;49.316;8.558;2023-04-29T01:25:16;100090.00;;;13.74;100.00
44457;BME280;30159;49.316;8.558;2023-04-29T01:27:51;100097.81;;;13.75;100.00
44457;BME280;30159;49.316;8.558;2023-04-29T01:30:30;100089.59;;;13.80;100.00
44457;BME280;30159;49.316;8.558;2023-04-29T01:33:02;100093.59;;;13.83;100.00
44457;BME280;30159;49.316;8.558;2023-04-29T01:35:43;100092.97;;;13.86;100.00
44457;BME280;30159;49.316;8.558;2023-04-29T01:38:19;100088.03;;;13.88;100.00
44457;BME280;30159;49.316;8.558;2023-04-29T01:40:55;100092.97;;;13.86;100.00
44457;BME280;30159;49.316;8.558;2023-04-29T01:43:27;100092.34;;;13.89;100.00
44457;BME280;30159;49.316;8.558;2023-04-29T01:45:55;100091.03;;;13.86;100.00
44457;BME280;30159;49.316;8.558;2023-04-29T01:48:22;100103.31;;;13.84;100.00
44457;BME280;30159;49.316;8.558;2023-04-29T01:50:50;100072.13;;;13.73;100.00
44457;BME280;30159;49.316;8.558;2023-04-29T01:53:16;100092.34;;;13.89;100.00
44457;BME280;30159;49.316;8.558;2023-04-29T01:55:43;100101.09;;;13.86;100.00
44457;BME280;30159;49.316;8.558;2023-04-29T01:58:11;100089.38;;;13.77;100.00
44457;BME280;30159;49.316;8.558;2023-04-29T02:00:37;100099.44;;;13.76;100.00
44457;BME280;30159;49.316;8.558;2023-04-29T02:03:04;100102.31;;;13.80;100.00
44457;BME280;30159;49.316;8.558;2023-04-29T02:05:30;100106.00;;;13.84;100.00
44457;BME280;30159;49.316;8.558;2023-04-29T02:07:58;100101.84;;;13.78;100.00
44457;BME280;30159;49.316;8.558;2023-04-29T02:10:25;100098.63;;;13.76;100.00
44457;BME280;30159;49.316;8.558;2023-04-29T02:12:52;100098.81;;;13.79;100.00
44457;BME280;30159;49.316;8.558;2023-04-29T02:15:19;100100.22;;;13.77;100.00
44457;BME280;30159;49.316;8.558;2023-04-29T02:17:46;100102.28;;;13.71;100.00
44457;BME280;30159;49.316;8.558;2023-04-29T02:20:13;100104.47;;;13.69;100.00
44457;BME280;30159;49.316;8.558;2023-04-29T02:22:40;100109.28;;;13.72;100.00
44457;BME280;30159;49.316;8.558;2023-04-29T02:25:07;100117.13;;;13.74;100.00
44457;BME280;30159;49.316;8.558;2023-04-29T02:27:33;100117.13;;;13.74;100.00
44457;BME280;30159;49.316;8.558;2023-04-29T02:30:03;100125.25;;;13.74;100.00
44457;BME280;30159;49.316;8.558;2023-04-29T02:32:31;100117.28;;;13.77;100.00
44457;BME280;30159;49.316;8.558;2023-04-29T02:34:58;100120.81;;;13.78;100.00
44457;BME280;30159;49.316;8.558;2023-04-29T02:37:25;100124.13;;;13.75;100.00
44457;BME280;30159;49.316;8.558;2023-04-29T02:39:51;100130.03;;;13.77;100.00
44457;BME280;30159;49.316;8.558;2023-04-29T02:42:18;100128.34;;;13.81;100.00
44457;BME280;30159;49.316;8.558;2023-04-29T02:44:45;100131.72;;;13.86;100.00
44457;BME280;30159;49.316;8.558;2023-04-29T02:47:11;100136.97;;;13.83;100.00
44457;BME280;30159;49.316;8.558;2023-04-29T02:49:39;100099.59;;;13.57;100.00
44457;BME280;30159;49.316;8.558;2023-04-29T02:52:06;100135.41;;;13.90;100.00
44457;BME280;30159;49.316;8.558;2023-04-29T02:54:32;100075.81;;;13.54;100.00
44457;BME280;30159;49.316;8.558;2023-04-29T02:56:59;100105.03;;;13.80;100.00
44457;BME280;30159;49.316;8.558;2023-04-29T02:59:25;100131.53;;;14.05;100.00
44457;BME280;30159;49.316;8.558;2023-04-29T03:01:52;100129.94;;;14.04;100.00
44457;BME280;30159;49.316;8.558;2023-04-29T03:04:19;100133.75;;;14.03;100.00
44457;BME280;30159;49.316;8.558;2023-04-29T03:06:47;100136.28;;;14.00;100.00
44457;BME280;30159;49.316;8.558;2023-04-29T03:09:14;100139.66;;;14.05;100.00
44457;BME280;30159;49.316;8.558;2023-04-29T03:11:40;100088.88;;;13.75;100.00
44457;BME280;30159;49.316;8.558;2023-04-29T03:14:07;100134.44;;;14.09;100.00
44457;BME280;30159;49.316;8.558;2023-04-29T03:16:33;100140.16;;;14.07;100.00
44457;BME280;30159;49.316;8.558;2023-04-29T03:19:00;100147.19;;;14.08;100.00
44457;BME280;30159;49.316;8.558;2023-04-29T03:21:27;100138.69;;;14.01;100.00
44457;BME280;30159;49.316;8.558;2023-04-29T03:23:55;100137.56;;;14.02;100.00
44457;BME280;30159;49.316;8.558;2023-04-29T03:26:22;100139.50;;;14.02;100.00
44457;BME280;30159;49.316;8.558;2023-04-29T03:28:49;100134.06;;;14.02;100.00
44457;BME280;30159;49.316;8.558;2023-04-29T03:31:15;100138.38;;;14.03;100.00
44457;BME280;30159;49.316;8.558;2023-04-29T03:33:42;100133.06;;;13.98;100.00
44457;BME280;30159;49.316;8.558;2023-04-29T03:36:09;100128.00;;;14.05;100.00
44457;BME280;30159;49.316;8.558;2023-04-29T03:38:35;100124.63;;;13.99;100.00
44457;BME280;30159;49.316;8.558;2023-04-29T03:41:04;100129.88;;;13.96;100.00
44457;BME280;30159;49.316;8.558;2023-04-29T03:43:30;100122.66;;;13.91;100.00
44457;BME280;30159;49.316;8.558;2023-04-29T03:45:57;100136.34;;;13.86;100.00
44457;BME280;30159;49.316;8.558;2023-04-29T03:48:24;100136.97;;;13.83;100.00
44457;BME280;30159;49.316;8.558;2023-04-29T03:50:50;100136.69;;;13.70;100.00
44457;BME280;30159;49.316;8.558;2023-04-29T03:53:17;100143.09;;;13.75;100.00
44457;BME280;30159;49.316;8.558;2023-04-29T03:55:43;100148.84;;;13.73;100.00
44457;BME280;30159;49.316;8.558;2023-04-29T03:58:11;100133.41;;;13.60;100.00
44457;BME280;30159;49.316;8.558;2023-04-29T04:00:38;100157.19;;;13.63;100.00
44457;BME280;30159;49.316;8.558;2023-04-29T04:03:05;100160.31;;;13.56;100.00
44457;BME280;30159;49.316;8.558;2023-04-29T04:05:31;100158.84;;;13.50;100.00
44457;BME280;30159;49.316;8.558;2023-04-29T04:07:58;100152.84;;;13.39;100.00
44457;BME280;30159;49.316;8.558;2023-04-29T04:10:25;100157.56;;;13.34;100.00
44457;BME280;30159;49.316;8.558;2023-04-29T04:12:55;100163.94;;;13.24;100.00
44457;BME280;30159;49.316;8.558;2023-04-29T04:15:23;100172.41;;;13.22;100.00
44457;BME280;30159;49.316;8.558;2023-04-29T04:17:49;100168.50;;;13.28;100.00
44457;BME280;30159;49.316;8.558;2023-04-29T04:20:16;100176.22;;;13.35;100.00
44457;BME280;30159;49.316;8.558;2023-04-29T04:22:42;100180.84;;;13.35;100.00
44457;BME280;30159;49.316;8.558;2023-04-29T04:25:09;100176.81;;;13.32;100.00
44457;BME280;30159;49.316;8.558;2023-04-29T04:27:36;100174.41;;;13.31;100.00
44457;BME280;30159;49.316;8.558;2023-04-29T04:30:03;100186.13;;;13.26;100.00
44457;BME280;30159;49.316;8.558;2023-04-29T04:32:31;100184.25;;;13.26;100.00
44457;BME280;30159;49.316;8.558;2023-04-29T04:34:57;100187.97;;;13.31;100.00
44457;BME280;30159;49.316;8.558;2023-04-29T04:37:24;100195.50;;;13.34;100.00
44457;BME280;30159;49.316;8.558;2023-04-29T04:39:50;100196.06;;;13.44;100.00
44457;BME280;30159;49.316;8.558;2023-04-29T04:42:17;100191.47;;;13.45;100.00
44457;BME280;30159;49.316;8.558;2023-04-29T04:44:43;100188.25;;;13.43;100.00
44457;BME280;30159;49.316;8.558;2023-04-29T04:47:10;100186.06;;;13.31;100.00
44457;BME280;30159;49.316;8.558;2023-04-29T04:49:38;100181.22;;;13.14;100.00
44457;BME280;30159;49.316;8.558;2023-04-29T04:52:04;100195.56;;;13.28;100.00
44457;BME280;30159;49.316;8.558;2023-04-29T04:54:31;100191.38;;;13.36;100.00
44457;BME280;30159;49.316;8.558;2023-04-29T04:56:57;100201.31;;;13.41;100.00
44457;BME280;30159;49.316;8.558;2023-04-29T04:59:24;100212.03;;;13.46;100.00
44457;BME280;30159;49.316;8.558;2023-04-29T05:01:50;100216.25;;;13.52;100.00
44457;BME280;30159;49.316;8.558;2023-04-29T05:04:17;100217.13;;;13.61;100.00
44457;BME280;30159;49.316;8.558;2023-04-29T05:06:45;100220.91;;;13.74;100.00
44457;BME280;30159;49.316;8.558;2023-04-29T05:09:12;100225.63;;;13.82;100.00
44457;BME280;30159;49.316;8.558;2023-04-29T05:11:38;100229.19;;;13.91;100.00
44457;BME280;30159;49.316;8.558;2023-04-29T05:14:06;100226.47;;;13.91;100.00
44457;BME280;30159;49.316;8.558;2023-04-29T05:16:32;100241.53;;;13.98;100.00
44457;BME280;30159;49.316;8.558;2023-04-29T05:18:59;100240.31;;;14.04;100.00
44457;BME280;30159;49.316;8.558;2023-04-29T05:21:25;100236.69;;;14.08;100.00
44457;BME280;30159;49.316;8.558;2023-04-29T05:23:53;100239.06;;;14.10;100.00
44457;BME280;30159;49.316;8.558;2023-04-29T05:26:20;100247.13;;;14.15;100.00
44457;BME280;30159;49.316;8.558;2023-04-29T05:28:46;100231.88;;;14.05;100.00
44457;BME280;30159;49.316;8.558;2023-04-29T05:31:13;100243.22;;;14.07;100.00
44457;BME280;30159;49.316;8.558;2023-04-29T05:33:39;100239.63;;;13.98;100.00
44457;BME280;30159;49.316;8.558;2023-04-29T05:36:06;100251.25;;;14.12;100.00
44457;BME280;30159;49.316;8.558;2023-04-29T05:38:32;100243.66;;;14.23;100.00
44457;BME280;30159;49.316;8.558;2023-04-29T05:41:00;100248.38;;;14.31;100.00
44457;BME280;30159;49.316;8.558;2023-04-29T05:43:28;100259.63;;;14.47;100.00
44457;BME280;30159;49.316;8.558;2023-04-29T05:45:54;100258.31;;;14.59;100.00
44457;BME280;30159;49.316;8.558;2023-04-29T05:48:21;100219.25;;;14.46;100.00
44457;BME280;30159;49.316;8.558;2023-04-29T05:50:47;100259.16;;;14.68;100.00
44457;BME280;30159;49.316;8.558;2023-04-29T05:53:14;100262.78;;;14.86;100.00
44457;BME280;30159;49.316;8.558;2023-04-29T05:55:40;100262.22;;;14.98;100.00
44457;BME280;30159;49.316;8.558;2023-04-29T05:58:10;100265.63;;;15.12;100.00
44457;BME280;30159;49.316;8.558;2023-04-29T06:00:37;100265.31;;;15.13;100.00
44457;BME280;30159;49.316;8.558;2023-04-29T06:03:05;100272.44;;;15.41;100.00
44457;BME280;30159;49.316;8.558;2023-04-29T06:05:31;100269.47;;;15.59;100.00
44457;BME280;30159;49.316;8.558;2023-04-29T06:07:58;100267.41;;;15.65;100.00
44457;BME280;30159;49.316;8.558;2023-04-29T06:10:24;100244.03;;;15.55;100.00
44457;BME280;30159;49.316;8.558;2023-04-29T06:12:51;100279.78;;;15.71;100.00
44457;BME280;30159;49.316;8.558;2023-04-29T06:15:19;100284.88;;;15.73;100.00
44457;BME280;30159;49.316;8.558;2023-04-29T06:17:45;100274.59;;;15.61;100.00
44457;BME280;30159;49.316;8.558;2023-04-29T06:20:13;100240.31;;;15.43;100.00
44457;BME280;30159;49.316;8.558;2023-04-29T06:22:39;100268.59;;;15.99;100.00
44457;BME280;30159;49.316;8.558;2023-04-29T06:25:06;100283.97;;;16.56;100.00
44457;BME280;30159;49.316;8.558;2023-04-29T06:27:33;100288.28;;;16.57;100.00
44457;BME280;30159;49.316;8.558;2023-04-29T06:29:59;100284.34;;;17.10;100.00
44457;BME280;30159;49.316;8.558;2023-04-29T06:32:27;100284.56;;;16.96;100.00
44457;BME280;30159;49.316;8.558;2023-04-29T06:34:54;100296.47;;;16.65;100.00
44457;BME280;30159;49.316;8.558;2023-04-29T06:37:21;100297.59;;;16.12;100.00
44457;BME280;30159;49.316;8.558;2023-04-29T06:39:47;100287.09;;;15.62;100.00
44457;BME280;30159;49.316;8.558;2023-04-29T06:42:14;100299.00;;;15.44;100.00
44457;BME280;30159;49.316;8.558;2023-04-29T06:44:40;100309.56;;;15.45;100.00
44457;BME280;30159;49.316;8.558;2023-04-29T06:47:07;100302.47;;;15.75;100.00
44457;BME280;30159;49.316;8.558;2023-04-29T06:49:35;100310.03;;;15.87;100.00
44457;BME280;30159;49.316;8.558;2023-04-29T06:52:01;100306.53;;;15.47;100.00
44457;BME280;30159;49.316;8.558;2023-04-29T06:54:28;100257.84;;;14.88;100.00
44457;BME280;30159;49.316;8.558;2023-04-29T06:56:55;100316.34;;;15.25;100.00
44457;BME280;30159;49.316;8.558;2023-04-29T06:59:22;100310.94;;;15.25;100.00
44457;BME280;30159;49.316;8.558;2023-04-29T07:01:49;100315.91;;;15.32;100.00
44457;BME280;30159;49.316;8.558;2023-04-29T07:04:16;100321.16;;;15.28;100.00
44457;BME280;30159;49.316;8.558;2023-04-29T07:06:44;100326.06;;;15.17;100.00
44457;BME280;30159;49.316;8.558;2023-04-29T07:09:11;100316.72;;;15.01;100.00
44457;BME280;30159;49.316;8.558;2023-04-29T07:11:38;100335.19;;;14.90;100.00
44457;BME280;30159;49.316;8.558;2023-04-29T07:14:04;100344.56;;;14.62;100.00
44457;BME280;30159;49.316;8.558;2023-04-29T07:16:31;100324.34;;;14.31;100.00
44457;BME280;30159;49.316;8.558;2023-04-29T07:18:58;100346.22;;;14.35;100.00
44457;BME280;30159;49.316;8.558;2023-04-29T07:21:25;100357.16;;;14.44;100.00
44457;BME280;30159;49.316;8.558;2023-04-29T07:23:53;100309.97;;;14.17;100.00
44457;BME280;30159;49.316;8.558;2023-04-29T07:26:20;100351.88;;;14.61;100.00
44457;BME280;30159;49.316;8.558;2023-04-29T07:28:47;100367.31;;;14.74;100.00
44457;BME280;30159;49.316;8.558;2023-04-29T07:31:14;100358.72;;;14.59;100.00
44457;BME280;30159;49.316;8.558;2023-04-29T07:33:41;100324.25;;;14.23;100.00
44457;BME280;30159;49.316;8.558;2023-04-29T07:36:07;100372.50;;;14.62;100.00
44457;BME280;30159;49.316;8.558;2023-04-29T07:38:34;100377.94;;;14.62;100.00
44457;BME280;30159;49.316;8.558;2023-04-29T07:41:02;100376.69;;;14.68;100.00
44457;BME280;30159;49.316;8.558;2023-04-29T07:43:29;100377.13;;;14.84;100.00
44457;BME280;30159;49.316;8.558;2023-04-29T07:45:56;100381.69;;;14.75;100.00
44457;BME280;30159;49.316;8.558;2023-04-29T07:48:22;100394.22;;;14.62;100.00
44457;BME280;30159;49.316;8.558;2023-04-29T07:50:49;100389.47;;;14.68;100.00
44457;BME280;30159;49.316;8.558;2023-04-29T07:53:16;100385.72;;;14.55;100.00
44457;BME280;30159;49.316;8.558;2023-04-29T07:55:42;100390.72;;;14.62;100.00
44457;BME280;30159;49.316;8.558;2023-04-29T07:58:10;100404.75;;;14.64;100.00
44457;BME280;30159;49.316;8.558;2023-04-29T08:00:37;100414.44;;;14.42;100.00
44457;BME280;30159;49.316;8.558;2023-04-29T08:03:03;100401.09;;;14.32;100.00
44457;BME280;30159;49.316;8.558;2023-04-29T08:05:30;100411.06;;;14.23;100.00
44457;BME280;30159;49.316;8.558;2023-04-29T08:07:57;100410.56;;;13.93;100.00
44457;BME280;30159;49.316;8.558;2023-04-29T08:10:23;100413.69;;;14.00;100.00
44457;BME280;30159;49.316;8.558;2023-04-29T08:12:51;100398.22;;;13.87;100.00
44457;BME280;30159;49.316;8.558;2023-04-29T08:15:19;100412.09;;;13.99;100.00
44457;BME280;30159;49.316;8.558;2023-04-29T08:17:45;100420.50;;;14.11;100.00
44457;BME280;30159;49.316;8.558;2023-04-29T08:20:12;100422.03;;;14.18;100.00
44457;BME280;30159;49.316;8.558;2023-04-29T08:22:39;100433.06;;;14.07;100.00
44457;BME280;30159;49.316;8.558;2023-04-29T08:25:07;100425.75;;;14.08;100.00
44457;BME280;30159;49.316;8.558;2023-04-29T08:27:34;100429.81;;;14.33;100.00
44457;BME280;30159;49.316;8.558;2023-04-29T08:30:01;100429.94;;;14.56;100.00
44457;BME280;30159;49.316;8.558;2023-04-29T08:32:28;100381.44;;;14.63;100.00
44457;BME280;30159;49.316;8.558;2023-04-29T08:34:56;100431.34;;;15.12;100.00
44457;BME280;30159;49.316;8.558;2023-04-29T08:37:22;100411.06;;;14.73;100.00
44457;BME280;30159;49.316;8.558;2023-04-29T08:39:49;100411.59;;;14.61;100.00
44457;BME280;30159;49.316;8.558;2023-04-29T08:42:17;100431.28;;;14.81;100.00
44457;BME280;30159;49.316;8.558;2023-04-29T08:44:46;100436.03;;;14.98;100.00
44457;BME280;30159;49.316;8.558;2023-04-29T08:47:14;100439.69;;;15.15;100.00
44457;BME280;30159;49.316;8.558;2023-04-29T08:49:42;100440.66;;;15.20;100.00
44457;BME280;30159;49.316;8.558;2023-04-29T08:52:09;100432.03;;;14.95;100.00
44457;BME280;30159;49.316;8.558;2023-04-29T08:54:35;100440.63;;;15.11;100.00
44457;BME280;30159;49.316;8.558;2023-04-29T08:57:03;100443.75;;;15.04;99.45
44457;BME280;30159;49.316;8.558;2023-04-29T08:59:31;100434.97;;;14.85;100.00
44457;BME280;30159;49.316;8.558;2023-04-29T09:01:58;100446.81;;;14.89;100.00
44457;BME280;30159;49.316;8.558;2023-04-29T09:04:35;100449.53;;;14.89;99.86
44457;BME280;30159;49.316;8.558;2023-04-29T09:07:04;100459.63;;;15.11;99.44
44457;BME280;30159;49.316;8.558;2023-04-29T09:09:32;100450.13;;;15.22;98.79
44457;BME280;30159;49.316;8.558;2023-04-29T09:11:59;100455.06;;;15.20;95.40
44457;BME280;30159;49.316;8.558;2023-04-29T09:14:27;100458.16;;;15.27;94.57
44457;BME280;30159;49.316;8.558;2023-04-29T09:16:54;100462.41;;;15.20;92.87
44457;BME280;30159;49.316;8.558;2023-04-29T09:19:28;100457.16;;;15.46;92.70
44457;BME280;30159;49.316;8.558;2023-04-29T09:21:55;100460.06;;;15.72;93.77
44457;BME280;30159;49.316;8.558;2023-04-29T09:24:26;100468.06;;;15.77;91.07
44457;BME280;30159;49.316;8.558;2023-04-29T09:26:53;100459.78;;;15.82;91.67
44457;BME280;30159;49.316;8.558;2023-04-29T09:29:20;100461.34;;;15.74;89.47
44457;BME280;30159;49.316;8.558;2023-04-29T09:31:47;100459.31;;;15.57;90.63
44457;BME280;30159;49.316;8.558;2023-04-29T09:34:14;100463.69;;;15.67;91.40
44457;BME280;30159;49.316;8.558;2023-04-29T09:36:44;100432.91;;;15.58;93.24
44457;BME280;30159;49.316;8.558;2023-04-29T09:39:12;100333.88;;;14.65;90.73
44457;BME280;30159;49.316;8.558;2023-04-29T09:41:55;100450.00;;;15.05;91.90
44457;BME280;30159;49.316;8.558;2023-04-29T09:44:24;100469.31;;;14.53;96.26
44457;BME280;30159;49.316;8.558;2023-04-29T09:46:54;100469.63;;;14.38;97.97
44457;BME280;30159;49.316;8.558;2023-04-29T09:49:23;100472.44;;;14.46;100.00
44457;BME280;30159;49.316;8.558;2023-04-29T09:51:54;100480.38;;;14.57;99.85
44457;BME280;30159;49.316;8.558;2023-04-29T09:54:23;100479.44;;;14.75;100.00
44457;BME280;30159;49.316;8.558;2023-04-29T09:56:52;100480.34;;;14.84;98.37
44457;BME280;30159;49.316;8.558;2023-04-29T09:59:19;100333.34;;;13.77;98.89
44457;BME280;30159;49.316;8.558;2023-04-29T10:01:47;100479.78;;;14.73;98.95
44457;BME280;30159;49.316;8.558;2023-04-29T10:04:15;100478.00;;;14.91;100.00
44457;BME280;30159;49.316;8.558;2023-04-29T10:06:43;100478.59;;;15.02;97.66
44457;BME280;30159;49.316;8.558;2023-04-29T10:09:12;100486.16;;;14.91;95.95
44457;BME280;30159;49.316;8.558;2023-04-29T10:11:41;100440.00;;;14.55;97.38
44457;BME280;30159;49.316;8.558;2023-04-29T10:14:12;100482.16;;;14.75;96.97
44457;BME280;30159;49.316;8.558;2023-04-29T10:16:45;100481.28;;;14.66;93.32
44457;BME280;30159;49.316;8.558;2023-04-29T10:19:18;100474.94;;;15.07;93.99
44457;BME280;30159;49.316;8.558;2023-04-29T10:21:49;100461.25;;;15.34;89.05
44457;BME280;30159;49.316;8.558;2023-04-29T10:24:20;100478.50;;;15.61;87.84
44457;BME280;30159;49.316;8.558;2023-04-29T10:26:50;100469.72;;;15.87;85.69
44457;BME280;30159;49.316;8.558;2023-04-29T10:29:18;100476.28;;;15.86;83.53
44457;BME280;30159;49.316;8.558;2023-04-29T10:31:47;100462.31;;;15.56;83.83
44457;BME280;30159;49.316;8.558;2023-04-29T10:34:16;100480.88;;;15.76;81.28
44457;BME280;30159;49.316;8.558;2023-04-29T10:36:43;100480.00;;;15.67;81.82
44457;BME280;30159;49.316;8.558;2023-04-29T10:39:17;100479.88;;;15.72;81.92
44457;BME280;30159;49.316;8.558;2023-04-29T10:41:47;100479.25;;;16.07;81.33
44457;BME280;30159;49.316;8.558;2023-04-29T10:44:14;100474.59;;;16.56;79.26
44457;BME280;30159;49.316;8.558;2023-04-29T10:46:42;100475.16;;;16.93;80.44
44457;BME280;30159;49.316;8.558;2023-04-29T10:49:09;100476.91;;;17.23;76.98
44457;BME280;30159;49.316;8.558;2023-04-29T10:51:39;100471.06;;;16.55;78.89
44457;BME280;30159;49.316;8.558;2023-04-29T10:54:07;100476.75;;;16.28;80.73
44457;BME280;30159;49.316;8.558;2023-04-29T10:56:39;100478.53;;;16.32;80.01
44457;BME280;30159;49.316;8.558;2023-04-29T10:59:11;100479.88;;;16.61;79.79
44457;BME280;30159;49.316;8.558;2023-04-29T11:01:47;100472.56;;;16.96;78.97
44457;BME280;30159;49.316;8.558;2023-04-29T11:04:15;100481.72;;;17.00;77.90
44457;BME280;30159;49.316;8.558;2023-04-29T11:06:47;100475.72;;;17.59;75.73
44457;BME280;30159;49.316;8.558;2023-04-29T11:09:18;100487.47;;;17.42;75.20
44457;BME280;30159;49.316;8.558;2023-04-29T11:14:31;100456.19;;;17.40;75.33
44457;BME280;30159;49.316;8.558;2023-04-29T11:17:03;100461.97;;;18.03;73.45
44457;BME280;30159;49.316;8.558;2023-04-29T11:19:31;100471.78;;;17.95;71.85
44457;BME280;30159;49.316;8.558;2023-04-29T11:22:07;100459.75;;;17.87;74.12
44457;BME280;30159;49.316;8.558;2023-04-29T11:24:34;100463.19;;;17.67;74.08
44457;BME280;30159;49.316;8.558;2023-04-29T11:27:02;100462.78;;;17.30;74.16
44457;BME280;30159;49.316;8.558;2023-04-29T11:29:29;100459.06;;;17.43;75.78
44457;BME280;30159;49.316;8.558;2023-04-29T11:31:57;100459.81;;;17.61;73.53
44457;BME280;30159;49.316;8.558;2023-04-29T11:34:25;100461.41;;;17.71;74.97
44457;BME280;30159;49.316;8.558;2023-04-29T11:36:52;100347.72;;;16.72;74.03
44457;BME280;30159;49.316;8.558;2023-04-29T11:39:19;100465.28;;;17.53;72.39
44457;BME280;30159;49.316;8.558;2023-04-29T11:41:46;100462.00;;;16.95;75.34
44457;BME280;30159;49.316;8.558;2023-04-29T11:44:20;100465.19;;;17.05;74.64
44457;BME280;30159;49.316;8.558;2023-04-29T11:46:46;100468.72;;;17.32;74.99
44457;BME280;30159;49.316;8.558;2023-04-29T11:49:13;100465.16;;;17.32;75.06
44457;BME280;30159;49.316;8.558;2023-04-29T11:51:41;100468.72;;;17.06;74.75
44457;BME280;30159;49.316;8.558;2023-04-29T11:54:08;100474.31;;;17.27;76.52
44457;BME280;30159;49.316;8.558;2023-04-29T11:56:36;100470.78;;;17.26;73.53
44457;BME280;30159;49.316;8.558;2023-04-29T11:59:03;100475.91;;;17.45;74.06
44457;BME280;30159;49.316;8.558;2023-04-29T12:01:32;100479.31;;;17.25;75.18
44457;BME280;30159;49.316;8.558;2023-04-29T12:03:58;100485.56;;;17.08;74.72
44457;BME280;30159;49.316;8.558;2023-04-29T12:06:27;100486.69;;;16.98;74.96
44457;BME280;30159;49.316;8.558;2023-04-29T12:08:57;100481.53;;;16.79;77.45
44457;BME280;30159;49.316;8.558;2023-04-29T12:11:24;100421.03;;;16.34;76.97
44457;BME280;30159;49.316;8.558;2023-04-29T12:13:52;100492.84;;;16.64;78.41
44457;BME280;30159;49.316;8.558;2023-04-29T12:16:19;100494.44;;;16.56;79.42
44457;BME280;30159;49.316;8.558;2023-04-29T12:18:46;100497.25;;;16.34;79.87
44457;BME280;30159;49.316;8.558;2023-04-29T12:21:12;100482.31;;;15.83;82.16
44457;BME280;30159;49.316;8.558;2023-04-29T12:23:40;100430.47;;;15.48;84.29
44457;BME280;30159;49.316;8.558;2023-04-29T12:26:07;100478.94;;;15.77;83.41
44457;BME280;30159;49.316;8.558;2023-04-29T12:28:34;100496.22;;;16.12;83.93
44457;BME280;30159;49.316;8.558;2023-04-29T12:31:01;100498.25;;;15.98;82.52
44457;BME280;30159;49.316;8.558;2023-04-29T12:33:28;100504.03;;;16.05;81.63
44457;BME280;30159;49.316;8.558;2023-04-29T12:35:56;100499.19;;;15.93;81.73
44457;BME280;30159;49.316;8.558;2023-04-29T12:38:24;100498.19;;;15.80;82.53
44457;BME280;30159;49.316;8.558;2023-04-29T12:40:52;100503.88;;;15.70;82.97
44457;BME280;30159;49.316;8.558;2023-04-29T12:43:25;100441.91;;;15.67;81.55
44457;BME280;30159;49.316;8.558;2023-04-29T12:45:53;100491.22;;;16.06;80.87
44457;BME280;30159;49.316;8.558;2023-04-29T12:48:19;100504.47;;;15.90;79.78